sensor_id;sensor_type;location;lat;lon;timestamp;P1;P2;P0
70255;PMS5003;57669;52.624;-1.688;2022-09-09T00:00:23;17;15;
70255;PMS5003;57669;52.624;-1.688;2022-09-09T00:02:52;18;17;
70255;PMS5003;57669;52.624;-1.688;2022-09-09T00:05:17;18;17;
70255;PMS5003;57669;52.624;-1.688;2022-09-09T00:07:41;15;13;
70255;PMS5003;57669;52.624;-1.688;2022-09-09T00:10:09;12;12;
70255;PMS5003;57669;52.624;-1.688;2022-09-09T00:12:34;18;17;
70255;PMS5003;57669;52.624;-1.688;2022-09-09T00:14:58;13;12;
70255;PMS5003;57669;52.624;-1.688;2022-09-09T00:17:26;15;14;
70255;PMS5003;57669;52.624;-1.688;2022-09-09T00:19:48;14;14;
70255;PMS5003;57669;52.624;-1.688;2022-09-09T00:22:15;14;13;
70255;PMS5003;57669;52.624;-1.688;2022-09-09T00:24:40;11;11;
70255;PMS5003;57669;52.624;-1.688;2022-09-09T00:27:06;11;11;
70255;PMS5003;57669;52.624;-1.688;2022-09-09T00:29:32;12;11;
70255;PMS5003;57669;52.624;-1.688;2022-09-09T00:31:55;13;12;
70255;PMS5003;57669;52.624;-1.688;2022-09-09T00:34:22;11;11;
70255;PMS5003;57669;52.624;-1.688;2022-09-09T00:36:47;10;9;
70255;PMS5003;57669;52.624;-1.688;2022-09-09T00:39:15;13;11;
70255;PMS5003;57669;52.624;-1.688;2022-09-09T00:41:42;13;12;
70255;PMS5003;57669;52.624;-1.688;2022-09-09T00:44:08;12;12;
70255;PMS5003;57669;52.624;-1.688;2022-09-09T00:48:58;11;10;
70255;PMS5003;57669;52.624;-1.688;2022-09-09T00:51:23;10;10;
70255;PMS5003;57669;52.624;-1.688;2022-09-09T00:56:13;9;9;
70255;PMS5003;57669;52.624;-1.688;2022-09-09T00:58:38;13;12;
70255;PMS5003;57669;52.624;-1.688;2022-09-09T01:01:04;9;9;
70255;PMS5003;57669;52.624;-1.688;2022-09-09T01:03:31;11;11;
70255;PMS5003;57669;52.624;-1.688;2022-09-09T01:05:59;13;13;
70255;PMS5003;57669;52.624;-1.688;2022-09-09T01:08:26;10;10;
70255;PMS5003;57669;52.624;-1.688;2022-09-09T01:10:48;11;10;
70255;PMS5003;57669;52.624;-1.688;2022-09-09T01:13:13;10;10;
70255;PMS5003;57669;52.624;-1.688;2022-09-09T01:15:38;12;12;
70255;PMS5003;57669;52.624;-1.688;2022-09-09T01:18:04;12;12;
70255;PMS5003;57669;52.624;-1.688;2022-09-09T01:20:30;14;13;
70255;PMS5003;57669;52.624;-1.688;2022-09-09T01:23:00;13;12;
70255;PMS5003;57669;52.624;-1.688;2022-09-09T01:25:22;14;13;
70255;PMS5003;57669;52.624;-1.688;2022-09-09T01:27:46;19;18;
70255;PMS5003;57669;52.624;-1.688;2022-09-09T01:30:11;14;14;
70255;PMS5003;57669;52.624;-1.688;2022-09-09T01:32:38;14;14;
70255;PMS5003;57669;52.624;-1.688;2022-09-09T01:35:02;21;20;
70255;PMS5003;57669;52.624;-1.688;2022-09-09T01:37:27;16;16;
70255;PMS5003;57669;52.624;-1.688;2022-09-09T01:39:53;17;17;
70255;PMS5003;57669;52.624;-1.688;2022-09-09T01:42:18;16;16;
70255;PMS5003;57669;52.624;-1.688;2022-09-09T01:44:44;14;14;
70255;PMS5003;57669;52.624;-1.688;2022-09-09T01:47:10;15;15;
70255;PMS5003;57669;52.624;-1.688;2022-09-09T01:49:35;15;14;
70255;PMS5003;57669;52.624;-1.688;2022-09-09T01:52:01;16;16;
70255;PMS5003;57669;52.624;-1.688;2022-09-09T01:54:27;16;14;
70255;PMS5003;57669;52.624;-1.688;2022-09-09T01:56:55;15;15;
70255;PMS5003;57669;52.624;-1.688;2022-09-09T01:59:20;19;17;
70255;PMS5003;57669;52.624;-1.688;2022-09-09T02:01:46;19;18;
70255;PMS5003;57669;52.624;-1.688;2022-09-09T02:04:11;17;16;
70255;PMS5003;57669;52.624;-1.688;2022-09-09T02:06:35;17;16;
70255;PMS5003;57669;52.624;-1.688;2022-09-09T02:08:59;14;12;
70255;PMS5003;57669;52.624;-1.688;2022-09-09T02:11:25;14;14;
70255;PMS5003;57669;52.624;-1.688;2022-09-09T02:13:51;15;15;
70255;PMS5003;57669;52.624;-1.688;2022-09-09T02:16:16;14;13;
70255;PMS5003;57669;52.624;-1.688;2022-09-09T02:18:42;15;14;
70255;PMS5003;57669;52.624;-1.688;2022-09-09T02:21:06;13;13;
70255;PMS5003;57669;52.624;-1.688;2022-09-09T02:23:32;15;14;
70255;PMS5003;57669;52.624;-1.688;2022-09-09T02:28:25;12;12;
70255;PMS5003;57669;52.624;-1.688;2022-09-09T02:30:49;12;12;
70255;PMS5003;57669;52.624;-1.688;2022-09-09T02:33:14;19;18;
70255;PMS5003;57669;52.624;-1.688;2022-09-09T02:35:40;14;14;
70255;PMS5003;57669;52.624;-1.688;2022-09-09T02:38:06;14;14;
70255;PMS5003;57669;52.624;-1.688;2022-09-09T02:40:31;20;18;
70255;PMS5003;57669;52.624;-1.688;2022-09-09T02:42:57;14;13;
70255;PMS5003;57669;52.624;-1.688;2022-09-09T02:45:23;19;19;
70255;PMS5003;57669;52.624;-1.688;2022-09-09T02:47:50;14;12;
70255;PMS5003;57669;52.624;-1.688;2022-09-09T02:50:14;17;16;
70255;PMS5003;57669;52.624;-1.688;2022-09-09T02:52:42;20;19;
70255;PMS5003;57669;52.624;-1.688;2022-09-09T02:55:04;21;21;
70255;PMS5003;57669;52.624;-1.688;2022-09-09T02:57:29;17;17;
70255;PMS5003;57669;52.624;-1.688;2022-09-09T02:59:56;25;23;
70255;PMS5003;57669;52.624;-1.688;2022-09-09T03:02:20;21;20;
70255;PMS5003;57669;52.624;-1.688;2022-09-09T03:04:45;23;23;
70255;PMS5003;57669;52.624;-1.688;2022-09-09T03:07:10;21;20;
70255;PMS5003;57669;52.624;-1.688;2022-09-09T03:09:35;21;19;
70255;PMS5003;57669;52.624;-1.688;2022-09-09T03:12:01;24;22;
70255;PMS5003;57669;52.624;-1.688;2022-09-09T03:14:25;27;26;
70255;PMS5003;57669;52.624;-1.688;2022-09-09T03:16:51;25;24;
70255;PMS5003;57669;52.624;-1.688;2022-09-09T03:19:17;19;19;
70255;PMS5003;57669;52.624;-1.688;2022-09-09T03:21:47;27;25;
70255;PMS5003;57669;52.624;-1.688;2022-09-09T03:24:07;23;22;
70255;PMS5003;57669;52.624;-1.688;2022-09-09T03:26:33;26;24;
70255;PMS5003;57669;52.624;-1.688;2022-09-09T03:28:58;21;19;
70255;PMS5003;57669;52.624;-1.688;2022-09-09T03:31:23;21;21;
70255;PMS5003;57669;52.624;-1.688;2022-09-09T03:33:49;25;24;
70255;PMS5003;57669;52.624;-1.688;2022-09-09T03:36:14;25;23;
70255;PMS5003;57669;52.624;-1.688;2022-09-09T03:38:40;29;27;
70255;PMS5003;57669;52.624;-1.688;2022-09-09T03:41:05;26;25;
70255;PMS5003;57669;52.624;-1.688;2022-09-09T03:43:31;29;29;
70255;PMS5003;57669;52.624;-1.688;2022-09-09T03:45:56;31;28;
70255;PMS5003;57669;52.624;-1.688;2022-09-09T03:48:22;28;26;
70255;PMS5003;57669;52.624;-1.688;2022-09-09T03:50:47;26;25;
70255;PMS5003;57669;52.624;-1.688;2022-09-09T03:53:12;27;27;
70255;PMS5003;57669;52.624;-1.688;2022-09-09T03:55:38;31;28;
70255;PMS5003;57669;52.624;-1.688;2022-09-09T03:58:03;31;31;
70255;PMS5003;57669;52.624;-1.688;2022-09-09T04:00:29;27;27;
70255;PMS5003;57669;52.624;-1.688;2022-09-09T04:02:54;29;29;
70255;PMS5003;57669;52.624;-1.688;2022-09-09T04:05:19;28;27;
70255;PMS5003;57669;52.624;-1.688;2022-09-09T04:07:45;27;25;
70255;PMS5003;57669;52.624;-1.688;2022-09-09T04:10:10;32;31;
70255;PMS5003;57669;52.624;-1.688;2022-09-09T04:12:36;32;32;
70255;PMS5003;57669;52.624;-1.688;2022-09-09T04:15:06;32;30;
70255;PMS5003;57669;52.624;-1.688;2022-09-09T04:17:26;33;31;
70255;PMS5003;57669;52.624;-1.688;2022-09-09T04:19:52;32;31;
70255;PMS5003;57669;52.624;-1.688;2022-09-09T04:24:43;26;26;
70255;PMS5003;57669;52.624;-1.688;2022-09-09T04:27:08;32;28;
70255;PMS5003;57669;52.624;-1.688;2022-09-09T04:29:34;28;27;
70255;PMS5003;57669;52.624;-1.688;2022-09-09T04:31:59;31;30;
70255;PMS5003;57669;52.624;-1.688;2022-09-09T04:36:50;33;30;
70255;PMS5003;57669;52.624;-1.688;2022-09-09T04:39:15;26;26;
70255;PMS5003;57669;52.624;-1.688;2022-09-09T04:41:40;32;31;
70255;PMS5003;57669;52.624;-1.688;2022-09-09T04:44:06;33;33;
70255;PMS5003;57669;52.624;-1.688;2022-09-09T04:46:31;33;33;
70255;PMS5003;57669;52.624;-1.688;2022-09-09T04:48:57;34;32;
70255;PMS5003;57669;52.624;-1.688;2022-09-09T04:51:22;34;32;
70255;PMS5003;57669;52.624;-1.688;2022-09-09T04:53:47;31;31;
70255;PMS5003;57669;52.624;-1.688;2022-09-09T04:56:14;30;28;
70255;PMS5003;57669;52.624;-1.688;2022-09-09T04:58:38;30;29;
70255;PMS5003;57669;52.624;-1.688;2022-09-09T05:01:04;34;33;
70255;PMS5003;57669;52.624;-1.688;2022-09-09T05:03:29;29;28;
70255;PMS5003;57669;52.624;-1.688;2022-09-09T05:05:54;28;25;
70255;PMS5003;57669;52.624;-1.688;2022-09-09T05:08:20;23;23;
70255;PMS5003;57669;52.624;-1.688;2022-09-09T05:10:46;33;33;
70255;PMS5003;57669;52.624;-1.688;2022-09-09T05:13:10;27;25;
70255;PMS5003;57669;52.624;-1.688;2022-09-09T05:15:36;29;29;
70255;PMS5003;57669;52.624;-1.688;2022-09-09T05:18:02;29;28;
70255;PMS5003;57669;52.624;-1.688;2022-09-09T05:20:28;29;29;
70255;PMS5003;57669;52.624;-1.688;2022-09-09T05:22:52;29;29;
70255;PMS5003;57669;52.624;-1.688;2022-09-09T05:25:18;30;29;
70255;PMS5003;57669;52.624;-1.688;2022-09-09T05:27:43;31;27;
70255;PMS5003;57669;52.624;-1.688;2022-09-09T05:30:09;30;28;
70255;PMS5003;57669;52.624;-1.688;2022-09-09T05:32:34;23;22;
70255;PMS5003;57669;52.624;-1.688;2022-09-09T05:35:00;25;23;
70255;PMS5003;57669;52.624;-1.688;2022-09-09T05:37:25;30;28;
70255;PMS5003;57669;52.624;-1.688;2022-09-09T05:42:16;30;29;
70255;PMS5003;57669;52.624;-1.688;2022-09-09T05:44:41;25;25;
70255;PMS5003;57669;52.624;-1.688;2022-09-09T05:47:07;27;23;
70255;PMS5003;57669;52.624;-1.688;2022-09-09T05:49:33;26;25;
70255;PMS5003;57669;52.624;-1.688;2022-09-09T05:51:58;32;30;
70255;PMS5003;57669;52.624;-1.688;2022-09-09T05:54:24;28;28;
70255;PMS5003;57669;52.624;-1.688;2022-09-09T05:56:49;32;30;
70255;PMS5003;57669;52.624;-1.688;2022-09-09T05:59:15;30;30;
70255;PMS5003;57669;52.624;-1.688;2022-09-09T06:01:40;21;21;
70255;PMS5003;57669;52.624;-1.688;2022-09-09T06:04:07;30;29;
70255;PMS5003;57669;52.624;-1.688;2022-09-09T06:06:31;25;25;
70255;PMS5003;57669;52.624;-1.688;2022-09-09T06:11:22;27;25;
70255;PMS5003;57669;52.624;-1.688;2022-09-09T06:13:47;27;27;
70255;PMS5003;57669;52.624;-1.688;2022-09-09T06:18:38;26;26;
70255;PMS5003;57669;52.624;-1.688;2022-09-09T06:21:04;29;27;
70255;PMS5003;57669;52.624;-1.688;2022-09-09T06:23:29;28;27;
70255;PMS5003;57669;52.624;-1.688;2022-09-09T06:28:20;29;26;
70255;PMS5003;57669;52.624;-1.688;2022-09-09T06:30:45;22;22;
70255;PMS5003;57669;52.624;-1.688;2022-09-09T06:33:11;25;22;
70255;PMS5003;57669;52.624;-1.688;2022-09-09T06:35:37;29;29;
70255;PMS5003;57669;52.624;-1.688;2022-09-09T06:38:02;29;25;
70255;PMS5003;57669;52.624;-1.688;2022-09-09T06:40:27;30;28;
70255;PMS5003;57669;52.624;-1.688;2022-09-09T06:42:53;24;23;
70255;PMS5003;57669;52.624;-1.688;2022-09-09T06:45:18;27;26;
70255;PMS5003;57669;52.624;-1.688;2022-09-09T06:47:44;21;20;
70255;PMS5003;57669;52.624;-1.688;2022-09-09T06:50:09;26;26;
70255;PMS5003;57669;52.624;-1.688;2022-09-09T06:52:34;23;22;
70255;PMS5003;57669;52.624;-1.688;2022-09-09T06:54:59;26;24;
70255;PMS5003;57669;52.624;-1.688;2022-09-09T06:57:25;25;25;
70255;PMS5003;57669;52.624;-1.688;2022-09-09T06:59:50;21;21;
70255;PMS5003;57669;52.624;-1.688;2022-09-09T07:02:16;25;23;
70255;PMS5003;57669;52.624;-1.688;2022-09-09T07:04:41;27;26;
70255;PMS5003;57669;52.624;-1.688;2022-09-09T07:09:33;21;20;
70255;PMS5003;57669;52.624;-1.688;2022-09-09T07:11:58;20;17;
70255;PMS5003;57669;52.624;-1.688;2022-09-09T07:14:24;22;21;
70255;PMS5003;57669;52.624;-1.688;2022-09-09T07:16:49;27;26;
70255;PMS5003;57669;52.624;-1.688;2022-09-09T07:19:14;25;23;
70255;PMS5003;57669;52.624;-1.688;2022-09-09T07:21:39;26;25;
70255;PMS5003;57669;52.624;-1.688;2022-09-09T07:24:04;20;20;
70255;PMS5003;57669;52.624;-1.688;2022-09-09T07:26:30;21;19;
70255;PMS5003;57669;52.624;-1.688;2022-09-09T07:28:55;22;22;
70255;PMS5003;57669;52.624;-1.688;2022-09-09T07:31:22;20;19;
70255;PMS5003;57669;52.624;-1.688;2022-09-09T07:33:46;21;21;
70255;PMS5003;57669;52.624;-1.688;2022-09-09T07:36:13;26;25;
70255;PMS5003;57669;52.624;-1.688;2022-09-09T07:38:38;24;22;
70255;PMS5003;57669;52.624;-1.688;2022-09-09T07:41:03;20;19;
70255;PMS5003;57669;52.624;-1.688;2022-09-09T07:43:27;18;17;
70255;PMS5003;57669;52.624;-1.688;2022-09-09T07:45:57;18;18;
70255;PMS5003;57669;52.624;-1.688;2022-09-09T07:48:17;23;21;
70255;PMS5003;57669;52.624;-1.688;2022-09-09T07:50:43;21;20;
70255;PMS5003;57669;52.624;-1.688;2022-09-09T07:53:08;24;20;
70255;PMS5003;57669;52.624;-1.688;2022-09-09T07:55:35;19;17;
70255;PMS5003;57669;52.624;-1.688;2022-09-09T07:57:59;19;19;
70255;PMS5003;57669;52.624;-1.688;2022-09-09T08:00:25;21;21;
70255;PMS5003;57669;52.624;-1.688;2022-09-09T08:05:16;21;20;
70255;PMS5003;57669;52.624;-1.688;2022-09-09T08:07:42;21;21;
70255;PMS5003;57669;52.624;-1.688;2022-09-09T08:10:07;22;22;
70255;PMS5003;57669;52.624;-1.688;2022-09-09T08:12:33;22;22;
70255;PMS5003;57669;52.624;-1.688;2022-09-09T08:14:58;18;17;
70255;PMS5003;57669;52.624;-1.688;2022-09-09T08:17:23;25;24;
70255;PMS5003;57669;52.624;-1.688;2022-09-09T08:19:48;19;19;
70255;PMS5003;57669;52.624;-1.688;2022-09-09T08:22:14;18;18;
70255;PMS5003;57669;52.624;-1.688;2022-09-09T08:24:39;20;19;
70255;PMS5003;57669;52.624;-1.688;2022-09-09T08:27:05;20;18;
70255;PMS5003;57669;52.624;-1.688;2022-09-09T08:31:57;16;16;
70255;PMS5003;57669;52.624;-1.688;2022-09-09T08:34:22;20;20;
70255;PMS5003;57669;52.624;-1.688;2022-09-09T08:36:47;17;16;
70255;PMS5003;57669;52.624;-1.688;2022-09-09T08:39:14;18;18;
70255;PMS5003;57669;52.624;-1.688;2022-09-09T08:44:06;17;17;
70255;PMS5003;57669;52.624;-1.688;2022-09-09T08:46:31;17;16;
70255;PMS5003;57669;52.624;-1.688;2022-09-09T08:48:55;18;15;
70255;PMS5003;57669;52.624;-1.688;2022-09-09T08:51:19;23;22;
70255;PMS5003;57669;52.624;-1.688;2022-09-09T08:53:46;20;19;
70255;PMS5003;57669;52.624;-1.688;2022-09-09T08:56:11;20;19;
70255;PMS5003;57669;52.624;-1.688;2022-09-09T08:58:38;27;24;
70255;PMS5003;57669;52.624;-1.688;2022-09-09T09:03:28;23;19;
70255;PMS5003;57669;52.624;-1.688;2022-09-09T09:05:54;21;19;
70255;PMS5003;57669;52.624;-1.688;2022-09-09T09:08:22;20;19;
70255;PMS5003;57669;52.624;-1.688;2022-09-09T09:10:45;19;19;
70255;PMS5003;57669;52.624;-1.688;2022-09-09T09:13:09;24;21;
70255;PMS5003;57669;52.624;-1.688;2022-09-09T09:15:36;25;24;
70255;PMS5003;57669;52.624;-1.688;2022-09-09T09:17:59;18;16;
70255;PMS5003;57669;52.624;-1.688;2022-09-09T09:20:26;22;21;
70255;PMS5003;57669;52.624;-1.688;2022-09-09T09:22:50;20;19;
70255;PMS5003;57669;52.624;-1.688;2022-09-09T09:25:15;26;25;
70255;PMS5003;57669;52.624;-1.688;2022-09-09T09:27:46;22;18;
70255;PMS5003;57669;52.624;-1.688;2022-09-09T09:30:12;28;26;
70255;PMS5003;57669;52.624;-1.688;2022-09-09T09:32:32;20;19;
70255;PMS5003;57669;52.624;-1.688;2022-09-09T09:34:56;18;16;
70255;PMS5003;57669;52.624;-1.688;2022-09-09T09:37:22;23;23;
70255;PMS5003;57669;52.624;-1.688;2022-09-09T09:39:46;21;21;
70255;PMS5003;57669;52.624;-1.688;2022-09-09T09:42:11;17;17;
70255;PMS5003;57669;52.624;-1.688;2022-09-09T09:44:36;17;17;
70255;PMS5003;57669;52.624;-1.688;2022-09-09T09:47:06;17;17;
70255;PMS5003;57669;52.624;-1.688;2022-09-09T09:49:27;14;14;
70255;PMS5003;57669;52.624;-1.688;2022-09-09T09:51:53;20;19;
70255;PMS5003;57669;52.624;-1.688;2022-09-09T09:54:20;21;20;
70255;PMS5003;57669;52.624;-1.688;2022-09-09T09:56:43;15;15;
70255;PMS5003;57669;52.624;-1.688;2022-09-09T10:01:34;14;13;
70255;PMS5003;57669;52.624;-1.688;2022-09-09T10:04:00;22;18;
70255;PMS5003;57669;52.624;-1.688;2022-09-09T10:08:51;16;14;
70255;PMS5003;57669;52.624;-1.688;2022-09-09T10:11:22;12;12;
70255;PMS5003;57669;52.624;-1.688;2022-09-09T10:13:45;12;11;
70255;PMS5003;57669;52.624;-1.688;2022-09-09T10:16:12;11;11;
70255;PMS5003;57669;52.624;-1.688;2022-09-09T10:18:37;10;9;
70255;PMS5003;57669;52.624;-1.688;2022-09-09T10:21:00;10;9;
70255;PMS5003;57669;52.624;-1.688;2022-09-09T10:23:29;12;11;
70255;PMS5003;57669;52.624;-1.688;2022-09-09T10:25:55;12;11;
70255;PMS5003;57669;52.624;-1.688;2022-09-09T10:28:26;10;9;
70255;PMS5003;57669;52.624;-1.688;2022-09-09T10:30:42;11;9;
70255;PMS5003;57669;52.624;-1.688;2022-09-09T10:33:08;12;11;
70255;PMS5003;57669;52.624;-1.688;2022-09-09T10:35:33;11;11;
70255;PMS5003;57669;52.624;-1.688;2022-09-09T10:38:03;15;13;
70255;PMS5003;57669;52.624;-1.688;2022-09-09T10:40:28;9;9;
70255;PMS5003;57669;52.624;-1.688;2022-09-09T10:42:48;8;8;
70255;PMS5003;57669;52.624;-1.688;2022-09-09T10:45:16;7;7;
70255;PMS5003;57669;52.624;-1.688;2022-09-09T10:47:45;9;8;
70255;PMS5003;57669;52.624;-1.688;2022-09-09T10:50:11;7;7;
70255;PMS5003;57669;52.624;-1.688;2022-09-09T10:52:32;11;10;
70255;PMS5003;57669;52.624;-1.688;2022-09-09T10:54:58;9;9;
70255;PMS5003;57669;52.624;-1.688;2022-09-09T10:57:25;5;5;
70255;PMS5003;57669;52.624;-1.688;2022-09-09T10:59:48;10;9;
70255;PMS5003;57669;52.624;-1.688;2022-09-09T11:02:14;11;10;
70255;PMS5003;57669;52.624;-1.688;2022-09-09T11:04:39;14;13;
70255;PMS5003;57669;52.624;-1.688;2022-09-09T11:07:05;11;11;
70255;PMS5003;57669;52.624;-1.688;2022-09-09T11:09:31;13;12;
70255;PMS5003;57669;52.624;-1.688;2022-09-09T11:11:55;11;10;
70255;PMS5003;57669;52.624;-1.688;2022-09-09T11:14:22;11;10;
70255;PMS5003;57669;52.624;-1.688;2022-09-09T11:16:47;9;7;
70255;PMS5003;57669;52.624;-1.688;2022-09-09T11:19:13;10;9;
70255;PMS5003;57669;52.624;-1.688;2022-09-09T11:21:37;9;8;
70255;PMS5003;57669;52.624;-1.688;2022-09-09T11:24:02;8;8;
70255;PMS5003;57669;52.624;-1.688;2022-09-09T11:26:30;7;6;
70255;PMS5003;57669;52.624;-1.688;2022-09-09T11:28:57;10;10;
70255;PMS5003;57669;52.624;-1.688;2022-09-09T11:31:22;10;8;
70255;PMS5003;57669;52.624;-1.688;2022-09-09T11:33:51;14;12;
70255;PMS5003;57669;52.624;-1.688;2022-09-09T11:36:16;7;7;
70255;PMS5003;57669;52.624;-1.688;2022-09-09T11:38:37;11;10;
70255;PMS5003;57669;52.624;-1.688;2022-09-09T11:41:02;11;10;
70255;PMS5003;57669;52.624;-1.688;2022-09-09T11:43:28;12;11;
70255;PMS5003;57669;52.624;-1.688;2022-09-09T11:45:53;14;14;
70255;PMS5003;57669;52.624;-1.688;2022-09-09T11:48:22;12;11;
70255;PMS5003;57669;52.624;-1.688;2022-09-09T11:50:44;15;14;
70255;PMS5003;57669;52.624;-1.688;2022-09-09T11:55:35;8;8;
70255;PMS5003;57669;52.624;-1.688;2022-09-09T11:58:00;12;11;
70255;PMS5003;57669;52.624;-1.688;2022-09-09T12:00:31;13;11;
70255;PMS5003;57669;52.624;-1.688;2022-09-09T12:02:51;12;11;
70255;PMS5003;57669;52.624;-1.688;2022-09-09T12:05:16;12;12;
70255;PMS5003;57669;52.624;-1.688;2022-09-09T12:07:45;14;12;
70255;PMS5003;57669;52.624;-1.688;2022-09-09T12:12:34;14;12;
70255;PMS5003;57669;52.624;-1.688;2022-09-09T12:15:01;15;15;
70255;PMS5003;57669;52.624;-1.688;2022-09-09T12:17:25;16;15;
70255;PMS5003;57669;52.624;-1.688;2022-09-09T12:22:18;15;15;
70255;PMS5003;57669;52.624;-1.688;2022-09-09T12:24:41;13;13;
70255;PMS5003;57669;52.624;-1.688;2022-09-09T12:29:34;13;12;
70255;PMS5003;57669;52.624;-1.688;2022-09-09T12:31:58;16;14;
70255;PMS5003;57669;52.624;-1.688;2022-09-09T12:34:30;23;19;
70255;PMS5003;57669;52.624;-1.688;2022-09-09T12:36:49;16;15;
70255;PMS5003;57669;52.624;-1.688;2022-09-09T12:39:16;15;13;
70255;PMS5003;57669;52.624;-1.688;2022-09-09T12:41:39;12;11;
70255;PMS5003;57669;52.624;-1.688;2022-09-09T12:44:05;11;10;
70255;PMS5003;57669;52.624;-1.688;2022-09-09T12:46:32;12;12;
70255;PMS5003;57669;52.624;-1.688;2022-09-09T12:48:56;9;8;
70255;PMS5003;57669;52.624;-1.688;2022-09-09T12:51:24;10;10;
70255;PMS5003;57669;52.624;-1.688;2022-09-09T12:53:47;9;9;
70255;PMS5003;57669;52.624;-1.688;2022-09-09T12:56:18;9;8;
70255;PMS5003;57669;52.624;-1.688;2022-09-09T12:58:38;10;10;
70255;PMS5003;57669;52.624;-1.688;2022-09-09T13:01:05;8;8;
70255;PMS5003;57669;52.624;-1.688;2022-09-09T13:03:29;14;12;
70255;PMS5003;57669;52.624;-1.688;2022-09-09T13:05:57;13;12;
70255;PMS5003;57669;52.624;-1.688;2022-09-09T13:08:20;11;10;
70255;PMS5003;57669;52.624;-1.688;2022-09-09T13:10:47;9;9;
70255;PMS5003;57669;52.624;-1.688;2022-09-09T13:13:13;9;8;
70255;PMS5003;57669;52.624;-1.688;2022-09-09T13:15:37;8;8;
70255;PMS5003;57669;52.624;-1.688;2022-09-09T13:18:04;8;8;
70255;PMS5003;57669;52.624;-1.688;2022-09-09T13:20:28;10;10;
70255;PMS5003;57669;52.624;-1.688;2022-09-09T13:22:54;8;8;
70255;PMS5003;57669;52.624;-1.688;2022-09-09T13:25:22;11;9;
70255;PMS5003;57669;52.624;-1.688;2022-09-09T13:32:36;7;7;
70255;PMS5003;57669;52.624;-1.688;2022-09-09T13:35:02;7;7;
70255;PMS5003;57669;52.624;-1.688;2022-09-09T13:37:28;6;6;
70255;PMS5003;57669;52.624;-1.688;2022-09-09T13:39:53;10;10;
70255;PMS5003;57669;52.624;-1.688;2022-09-09T13:42:22;11;10;
70255;PMS5003;57669;52.624;-1.688;2022-09-09T13:44:44;10;10;
70255;PMS5003;57669;52.624;-1.688;2022-09-09T13:49:35;8;8;
70255;PMS5003;57669;52.624;-1.688;2022-09-09T13:52:04;8;8;
70255;PMS5003;57669;52.624;-1.688;2022-09-09T13:54:26;6;6;
70255;PMS5003;57669;52.624;-1.688;2022-09-09T13:56:52;82;79;
70255;PMS5003;57669;52.624;-1.688;2022-09-09T13:59:18;23;23;
70255;PMS5003;57669;52.624;-1.688;2022-09-09T14:01:43;15;15;
70255;PMS5003;57669;52.624;-1.688;2022-09-09T14:04:09;14;12;
70255;PMS5003;57669;52.624;-1.688;2022-09-09T14:06:34;12;11;
70255;PMS5003;57669;52.624;-1.688;2022-09-09T14:08:59;10;10;
70255;PMS5003;57669;52.624;-1.688;2022-09-09T14:11:25;10;9;
70255;PMS5003;57669;52.624;-1.688;2022-09-09T14:13:50;8;7;
70255;PMS5003;57669;52.624;-1.688;2022-09-09T14:16:16;7;7;
70255;PMS5003;57669;52.624;-1.688;2022-09-09T14:18:41;8;8;
70255;PMS5003;57669;52.624;-1.688;2022-09-09T14:21:07;8;7;
70255;PMS5003;57669;52.624;-1.688;2022-09-09T14:23:32;7;7;
70255;PMS5003;57669;52.624;-1.688;2022-09-09T14:25:58;6;6;
70255;PMS5003;57669;52.624;-1.688;2022-09-09T14:28:23;10;10;
70255;PMS5003;57669;52.624;-1.688;2022-09-09T14:30:49;6;6;
70255;PMS5003;57669;52.624;-1.688;2022-09-09T14:35:40;7;7;
70255;PMS5003;57669;52.624;-1.688;2022-09-09T14:38:05;7;6;
70255;PMS5003;57669;52.624;-1.688;2022-09-09T14:40:31;8;8;
70255;PMS5003;57669;52.624;-1.688;2022-09-09T14:42:56;9;9;
70255;PMS5003;57669;52.624;-1.688;2022-09-09T14:47:48;8;8;
70255;PMS5003;57669;52.624;-1.688;2022-09-09T14:50:13;8;6;
70255;PMS5003;57669;52.624;-1.688;2022-09-09T14:52:38;7;6;
70255;PMS5003;57669;52.624;-1.688;2022-09-09T14:55:04;5;4;
70255;PMS5003;57669;52.624;-1.688;2022-09-09T14:57:30;4;4;
70255;PMS5003;57669;52.624;-1.688;2022-09-09T14:59:55;4;4;
70255;PMS5003;57669;52.624;-1.688;2022-09-09T15:02:21;4;4;
70255;PMS5003;57669;52.624;-1.688;2022-09-09T15:04:46;3;3;
70255;PMS5003;57669;52.624;-1.688;2022-09-09T15:07:12;5;4;
70255;PMS5003;57669;52.624;-1.688;2022-09-09T15:09:37;5;4;
70255;PMS5003;57669;52.624;-1.688;2022-09-09T15:12:03;4;3;
70255;PMS5003;57669;52.624;-1.688;2022-09-09T15:14:29;4;4;
70255;PMS5003;57669;52.624;-1.688;2022-09-09T15:16:54;7;5;
70255;PMS5003;57669;52.624;-1.688;2022-09-09T15:19:20;5;5;
70255;PMS5003;57669;52.624;-1.688;2022-09-09T15:21:46;6;6;
70255;PMS5003;57669;52.624;-1.688;2022-09-09T15:24:11;8;7;
70255;PMS5003;57669;52.624;-1.688;2022-09-09T15:26:37;4;3;
70255;PMS5003;57669;52.624;-1.688;2022-09-09T15:29:02;8;7;
70255;PMS5003;57669;52.624;-1.688;2022-09-09T15:31:29;5;5;
70255;PMS5003;57669;52.624;-1.688;2022-09-09T15:33:54;5;5;
70255;PMS5003;57669;52.624;-1.688;2022-09-09T15:36:20;6;6;
70255;PMS5003;57669;52.624;-1.688;2022-09-09T15:38:45;5;5;
70255;PMS5003;57669;52.624;-1.688;2022-09-09T15:41:10;7;6;
70255;PMS5003;57669;52.624;-1.688;2022-09-09T15:43:36;6;6;
70255;PMS5003;57669;52.624;-1.688;2022-09-09T15:46:05;7;7;
70255;PMS5003;57669;52.624;-1.688;2022-09-09T15:48:29;6;5;
70255;PMS5003;57669;52.624;-1.688;2022-09-09T15:50:55;4;4;
70255;PMS5003;57669;52.624;-1.688;2022-09-09T15:53:19;6;5;
70255;PMS5003;57669;52.624;-1.688;2022-09-09T15:55:44;5;4;
70255;PMS5003;57669;52.624;-1.688;2022-09-09T15:58:10;6;5;
70255;PMS5003;57669;52.624;-1.688;2022-09-09T16:00:35;5;4;
70255;PMS5003;57669;52.624;-1.688;2022-09-09T16:03:01;5;5;
70255;PMS5003;57669;52.624;-1.688;2022-09-09T16:05:26;6;6;
70255;PMS5003;57669;52.624;-1.688;2022-09-09T16:07:52;4;4;
70255;PMS5003;57669;52.624;-1.688;2022-09-09T16:10:18;6;6;
70255;PMS5003;57669;52.624;-1.688;2022-09-09T16:12:43;4;4;
70255;PMS5003;57669;52.624;-1.688;2022-09-09T16:15:09;4;4;
70255;PMS5003;57669;52.624;-1.688;2022-09-09T16:17:34;4;4;
70255;PMS5003;57669;52.624;-1.688;2022-09-09T16:20:01;6;4;
70255;PMS5003;57669;52.624;-1.688;2022-09-09T16:22:26;9;9;
70255;PMS5003;57669;52.624;-1.688;2022-09-09T16:24:51;8;7;
70255;PMS5003;57669;52.624;-1.688;2022-09-09T16:27:17;4;4;
70255;PMS5003;57669;52.624;-1.688;2022-09-09T16:29:43;5;4;
70255;PMS5003;57669;52.624;-1.688;2022-09-09T16:32:08;4;4;
70255;PMS5003;57669;52.624;-1.688;2022-09-09T16:34:34;3;3;
70255;PMS5003;57669;52.624;-1.688;2022-09-09T16:36:59;4;4;
70255;PMS5003;57669;52.624;-1.688;2022-09-09T16:39:25;3;3;
70255;PMS5003;57669;52.624;-1.688;2022-09-09T16:41:50;4;4;
70255;PMS5003;57669;52.624;-1.688;2022-09-09T16:44:17;3;3;
70255;PMS5003;57669;52.624;-1.688;2022-09-09T16:46:42;3;3;
70255;PMS5003;57669;52.624;-1.688;2022-09-09T16:49:08;5;5;
70255;PMS5003;57669;52.624;-1.688;2022-09-09T16:51:33;3;3;
70255;PMS5003;57669;52.624;-1.688;2022-09-09T16:53:59;5;5;
70255;PMS5003;57669;52.624;-1.688;2022-09-09T16:56:25;3;3;